sensor_id;sensor_type;location;lat;lon;timestamp;temperature;humidity
5775;DHT22;2913;51.120;6.772;2024-03-08T00:01:55;4.60;99.90
5775;DHT22;2913;51.120;6.772;2024-03-08T00:04:21;4.60;99.90
5775;DHT22;2913;51.120;6.772;2024-03-08T00:06:51;4.50;99.90
5775;DHT22;2913;51.120;6.772;2024-03-08T00:09:17;4.50;99.90
5775;DHT22;2913;51.120;6.772;2024-03-08T00:14:09;4.40;99.90
5775;DHT22;2913;51.120;6.772;2024-03-08T00:16:37;4.60;99.90
5775;DHT22;2913;51.120;6.772;2024-03-08T00:19:08;4.40;99.90
5775;DHT22;2913;51.120;6.772;2024-03-08T00:21:34;4.30;99.90
5775;DHT22;2913;51.120;6.772;2024-03-08T00:24:01;4.30;99.90
5775;DHT22;2913;51.120;6.772;2024-03-08T00:26:26;4.30;99.90
5775;DHT22;2913;51.120;6.772;2024-03-08T00:28:57;4.40;99.90
5775;DHT22;2913;51.120;6.772;2024-03-08T00:31:23;4.20;99.90
5775;DHT22;2913;51.120;6.772;2024-03-08T00:33:51;4.20;99.90
5775;DHT22;2913;51.120;6.772;2024-03-08T00:36:18;4.20;99.90
5775;DHT22;2913;51.120;6.772;2024-03-08T00:41:13;4.10;99.90
5775;DHT22;2913;51.120;6.772;2024-03-08T00:43:39;3.90;99.90
5775;DHT22;2913;51.120;6.772;2024-03-08T00:46:05;3.90;99.90
5775;DHT22;2913;51.120;6.772;2024-03-08T00:48:30;3.90;99.90
5775;DHT22;2913;51.120;6.772;2024-03-08T00:50:56;3.80;99.90
5775;DHT22;2913;51.120;6.772;2024-03-08T00:53:25;3.70;99.90
5775;DHT22;2913;51.120;6.772;2024-03-08T00:55:50;3.70;99.90
5775;DHT22;2913;51.120;6.772;2024-03-08T00:58:16;3.80;99.90
5775;DHT22;2913;51.120;6.772;2024-03-08T01:00:42;3.70;99.90
5775;DHT22;2913;51.120;6.772;2024-03-08T01:03:07;3.80;99.90
5775;DHT22;2913;51.120;6.772;2024-03-08T01:05:33;3.80;99.90
5775;DHT22;2913;51.120;6.772;2024-03-08T01:08:00;3.90;99.90
5775;DHT22;2913;51.120;6.772;2024-03-08T01:10:28;3.80;99.90
5775;DHT22;2913;51.120;6.772;2024-03-08T01:12:56;3.80;99.90
5775;DHT22;2913;51.120;6.772;2024-03-08T01:15:25;3.80;99.90
5775;DHT22;2913;51.120;6.772;2024-03-08T01:17:50;3.70;99.90
5775;DHT22;2913;51.120;6.772;2024-03-08T01:20:16;3.70;99.90
5775;DHT22;2913;51.120;6.772;2024-03-08T01:22:43;3.60;99.90
5775;DHT22;2913;51.120;6.772;2024-03-08T01:25:08;3.60;99.90
5775;DHT22;2913;51.120;6.772;2024-03-08T01:27:36;3.60;99.90
5775;DHT22;2913;51.120;6.772;2024-03-08T01:30:03;3.60;99.90
5775;DHT22;2913;51.120;6.772;2024-03-08T01:32:29;3.50;99.90
5775;DHT22;2913;51.120;6.772;2024-03-08T01:34:54;3.50;99.90
5775;DHT22;2913;51.120;6.772;2024-03-08T01:37:23;3.50;99.90
5775;DHT22;2913;51.120;6.772;2024-03-08T01:39:48;3.50;99.90
5775;DHT22;2913;51.120;6.772;2024-03-08T01:44:43;3.40;99.90
5775;DHT22;2913;51.120;6.772;2024-03-08T01:47:10;3.40;99.90
5775;DHT22;2913;51.120;6.772;2024-03-08T01:49:38;3.40;99.90
5775;DHT22;2913;51.120;6.772;2024-03-08T01:52:05;3.30;99.90
5775;DHT22;2913;51.120;6.772;2024-03-08T01:54:31;3.30;99.90
5775;DHT22;2913;51.120;6.772;2024-03-08T01:56:57;3.30;99.90
5775;DHT22;2913;51.120;6.772;2024-03-08T01:59:25;3.30;99.90
5775;DHT22;2913;51.120;6.772;2024-03-08T02:01:55;3.20;99.90
5775;DHT22;2913;51.120;6.772;2024-03-08T02:04:23;3.20;99.90
5775;DHT22;2913;51.120;6.772;2024-03-08T02:06:49;3.20;99.90
5775;DHT22;2913;51.120;6.772;2024-03-08T02:09:15;3.20;99.90
5775;DHT22;2913;51.120;6.772;2024-03-08T02:14:11;3.20;99.90
5775;DHT22;2913;51.120;6.772;2024-03-08T02:21:29;3.30;99.90
5775;DHT22;2913;51.120;6.772;2024-03-08T02:23:59;3.30;99.90
5775;DHT22;2913;51.120;6.772;2024-03-08T02:28:53;3.30;99.90
5775;DHT22;2913;51.120;6.772;2024-03-08T02:31:19;3.40;99.90
5775;DHT22;2913;51.120;6.772;2024-03-08T02:33:49;3.40;99.90
5775;DHT22;2913;51.120;6.772;2024-03-08T02:36:15;3.40;99.90
5775;DHT22;2913;51.120;6.772;2024-03-08T02:38:41;3.40;99.90
5775;DHT22;2913;51.120;6.772;2024-03-08T02:41:09;3.40;99.90
5775;DHT22;2913;51.120;6.772;2024-03-08T02:43:35;3.40;99.90
5775;DHT22;2913;51.120;6.772;2024-03-08T02:46:01;3.40;99.90
5775;DHT22;2913;51.120;6.772;2024-03-08T02:48:27;3.40;99.90
5775;DHT22;2913;51.120;6.772;2024-03-08T02:50:57;3.40;99.90
5775;DHT22;2913;51.120;6.772;2024-03-08T02:53:27;3.40;99.90
5775;DHT22;2913;51.120;6.772;2024-03-08T02:55:53;3.30;99.90
5775;DHT22;2913;51.120;6.772;2024-03-08T02:58:18;3.30;99.90
5775;DHT22;2913;51.120;6.772;2024-03-08T03:00:46;3.30;99.90
5775;DHT22;2913;51.120;6.772;2024-03-08T03:03:12;3.30;99.90
5775;DHT22;2913;51.120;6.772;2024-03-08T03:05:40;3.30;99.90
5775;DHT22;2913;51.120;6.772;2024-03-08T03:08:09;3.20;99.90
5775;DHT22;2913;51.120;6.772;2024-03-08T03:10:37;3.40;99.90
5775;DHT22;2913;51.120;6.772;2024-03-08T03:13:03;3.20;99.90
5775;DHT22;2913;51.120;6.772;2024-03-08T03:15:30;3.20;99.90
5775;DHT22;2913;51.120;6.772;2024-03-08T03:17:58;3.10;99.90
5775;DHT22;2913;51.120;6.772;2024-03-08T03:20:23;3.10;99.90
5775;DHT22;2913;51.120;6.772;2024-03-08T03:22:52;3.10;99.90
5775;DHT22;2913;51.120;6.772;2024-03-08T03:25:19;3.10;99.90
5775;DHT22;2913;51.120;6.772;2024-03-08T03:27:56;3.10;99.90
5775;DHT22;2913;51.120;6.772;2024-03-08T03:30:23;3.10;99.90
5775;DHT22;2913;51.120;6.772;2024-03-08T03:32:51;3.10;99.90
5775;DHT22;2913;51.120;6.772;2024-03-08T03:35:20;2.90;99.90
5775;DHT22;2913;51.120;6.772;2024-03-08T03:37:49;2.80;99.90
5775;DHT22;2913;51.120;6.772;2024-03-08T03:40:37;2.80;99.90
5775;DHT22;2913;51.120;6.772;2024-03-08T03:43:03;2.90;99.90
5775;DHT22;2913;51.120;6.772;2024-03-08T03:45:29;2.80;99.90
5775;DHT22;2913;51.120;6.772;2024-03-08T03:47:59;2.80;99.90
5775;DHT22;2913;51.120;6.772;2024-03-08T03:50:28;2.90;99.90
5775;DHT22;2913;51.120;6.772;2024-03-08T03:52:53;2.90;99.90
5775;DHT22;2913;51.120;6.772;2024-03-08T03:55:21;2.90;99.90
5775;DHT22;2913;51.120;6.772;2024-03-08T03:57:47;2.80;99.90
5775;DHT22;2913;51.120;6.772;2024-03-08T04:00:13;2.80;99.90
5775;DHT22;2913;51.120;6.772;2024-03-08T04:02:40;2.80;99.90
5775;DHT22;2913;51.120;6.772;2024-03-08T04:05:07;2.80;99.90
5775;DHT22;2913;51.120;6.772;2024-03-08T04:07:37;2.80;99.90
5775;DHT22;2913;51.120;6.772;2024-03-08T04:10:08;2.80;99.90
5775;DHT22;2913;51.120;6.772;2024-03-08T04:12:37;2.80;99.90
5775;DHT22;2913;51.120;6.772;2024-03-08T04:15:03;2.80;99.90
5775;DHT22;2913;51.120;6.772;2024-03-08T04:17:33;2.80;99.90
5775;DHT22;2913;51.120;6.772;2024-03-08T04:20:04;2.80;99.90
5775;DHT22;2913;51.120;6.772;2024-03-08T04:22:38;2.80;99.90
5775;DHT22;2913;51.120;6.772;2024-03-08T04:25:05;2.80;99.90
5775;DHT22;2913;51.120;6.772;2024-03-08T04:27:32;2.80;99.90
5775;DHT22;2913;51.120;6.772;2024-03-08T04:30:02;2.80;99.90
5775;DHT22;2913;51.120;6.772;2024-03-08T04:32:28;2.90;99.90
5775;DHT22;2913;51.120;6.772;2024-03-08T04:35:00;2.90;99.90
5775;DHT22;2913;51.120;6.772;2024-03-08T04:37:31;2.80;99.90
5775;DHT22;2913;51.120;6.772;2024-03-08T04:39:57;2.80;99.90
5775;DHT22;2913;51.120;6.772;2024-03-08T04:42:26;2.70;99.90
5775;DHT22;2913;51.120;6.772;2024-03-08T04:44:54;2.70;99.90
5775;DHT22;2913;51.120;6.772;2024-03-08T04:47:22;2.80;99.90
5775;DHT22;2913;51.120;6.772;2024-03-08T04:49:47;2.70;99.90
5775;DHT22;2913;51.120;6.772;2024-03-08T04:52:13;2.80;99.90
5775;DHT22;2913;51.120;6.772;2024-03-08T04:54:38;2.80;99.90
5775;DHT22;2913;51.120;6.772;2024-03-08T04:57:04;2.80;99.90
5775;DHT22;2913;51.120;6.772;2024-03-08T04:59:31;2.80;99.90
5775;DHT22;2913;51.120;6.772;2024-03-08T05:01:59;2.80;99.90
5775;DHT22;2913;51.120;6.772;2024-03-08T05:04:24;2.80;99.90
5775;DHT22;2913;51.120;6.772;2024-03-08T05:06:55;2.70;99.90
5775;DHT22;2913;51.120;6.772;2024-03-08T05:09:27;2.70;99.90
5775;DHT22;2913;51.120;6.772;2024-03-08T05:11:54;2.90;99.90
5775;DHT22;2913;51.120;6.772;2024-03-08T05:14:20;2.80;99.90
5775;DHT22;2913;51.120;6.772;2024-03-08T05:16:47;2.80;99.90
5775;DHT22;2913;51.120;6.772;2024-03-08T05:19:19;2.80;99.90
5775;DHT22;2913;51.120;6.772;2024-03-08T05:21:49;2.80;99.90
5775;DHT22;2913;51.120;6.772;2024-03-08T05:24:15;2.90;99.90
5775;DHT22;2913;51.120;6.772;2024-03-08T05:26:42;2.90;99.90
5775;DHT22;2913;51.120;6.772;2024-03-08T05:29:10;2.90;99.90
5775;DHT22;2913;51.120;6.772;2024-03-08T05:31:56;2.90;99.90
5775;DHT22;2913;51.120;6.772;2024-03-08T05:34:23;2.90;99.90
5775;DHT22;2913;51.120;6.772;2024-03-08T05:36:52;2.80;99.90
5775;DHT22;2913;51.120;6.772;2024-03-08T05:39:22;2.80;99.90
5775;DHT22;2913;51.120;6.772;2024-03-08T05:41:48;2.80;99.90
5775;DHT22;2913;51.120;6.772;2024-03-08T05:44:14;2.80;99.90
5775;DHT22;2913;51.120;6.772;2024-03-08T05:46:42;2.90;99.90
5775;DHT22;2913;51.120;6.772;2024-03-08T05:49:08;2.90;99.90
5775;DHT22;2913;51.120;6.772;2024-03-08T05:51:36;2.90;99.90
5775;DHT22;2913;51.120;6.772;2024-03-08T05:54:03;2.90;99.90
5775;DHT22;2913;51.120;6.772;2024-03-08T05:56:34;2.80;99.90
5775;DHT22;2913;51.120;6.772;2024-03-08T05:59:06;2.80;99.90
5775;DHT22;2913;51.120;6.772;2024-03-08T06:01:31;2.80;99.90
5775;DHT22;2913;51.120;6.772;2024-03-08T06:04:04;2.80;99.90
5775;DHT22;2913;51.120;6.772;2024-03-08T06:06:29;2.80;99.90
5775;DHT22;2913;51.120;6.772;2024-03-08T06:08:57;2.80;99.90
5775;DHT22;2913;51.120;6.772;2024-03-08T06:11:24;2.80;99.90
5775;DHT22;2913;51.120;6.772;2024-03-08T06:13:52;2.80;99.90
5775;DHT22;2913;51.120;6.772;2024-03-08T06:18:57;2.90;99.90
5775;DHT22;2913;51.120;6.772;2024-03-08T06:21:23;2.80;99.90
5775;DHT22;2913;51.120;6.772;2024-03-08T06:23:53;2.80;99.90
5775;DHT22;2913;51.120;6.772;2024-03-08T06:26:20;3.00;99.90
5775;DHT22;2913;51.120;6.772;2024-03-08T06:28:47;3.00;99.90
5775;DHT22;2913;51.120;6.772;2024-03-08T06:31:13;3.00;99.90
5775;DHT22;2913;51.120;6.772;2024-03-08T06:33:40;3.00;99.90
5775;DHT22;2913;51.120;6.772;2024-03-08T06:36:06;3.00;99.90
5775;DHT22;2913;51.120;6.772;2024-03-08T06:38:34;3.10;99.90
5775;DHT22;2913;51.120;6.772;2024-03-08T06:40:59;3.10;99.90
5775;DHT22;2913;51.120;6.772;2024-03-08T06:43:30;3.20;99.90
5775;DHT22;2913;51.120;6.772;2024-03-08T06:45:59;3.20;99.90
5775;DHT22;2913;51.120;6.772;2024-03-08T06:48:25;3.30;99.90
5775;DHT22;2913;51.120;6.772;2024-03-08T06:50:51;3.40;99.90
5775;DHT22;2913;51.120;6.772;2024-03-08T06:53:16;3.50;99.90
5775;DHT22;2913;51.120;6.772;2024-03-08T06:55:46;3.50;99.90
5775;DHT22;2913;51.120;6.772;2024-03-08T06:58:12;3.70;99.90
5775;DHT22;2913;51.120;6.772;2024-03-08T07:00:40;3.80;99.90
5775;DHT22;2913;51.120;6.772;2024-03-08T07:03:11;4.00;99.90
5775;DHT22;2913;51.120;6.772;2024-03-08T07:05:42;4.10;99.90
5775;DHT22;2913;51.120;6.772;2024-03-08T07:08:10;4.20;99.90
5775;DHT22;2913;51.120;6.772;2024-03-08T07:10:39;4.30;99.90
5775;DHT22;2913;51.120;6.772;2024-03-08T07:13:10;4.40;99.90
5775;DHT22;2913;51.120;6.772;2024-03-08T07:15:38;4.40;99.90
5775;DHT22;2913;51.120;6.772;2024-03-08T07:18:07;4.50;99.90
5775;DHT22;2913;51.120;6.772;2024-03-08T07:20:42;4.60;99.90
5775;DHT22;2913;51.120;6.772;2024-03-08T07:23:11;4.60;99.90
5775;DHT22;2913;51.120;6.772;2024-03-08T07:25:57;4.70;99.90
5775;DHT22;2913;51.120;6.772;2024-03-08T07:28:22;4.80;99.90
5775;DHT22;2913;51.120;6.772;2024-03-08T07:30:48;4.90;99.90
5775;DHT22;2913;51.120;6.772;2024-03-08T07:33:14;4.90;99.90
5775;DHT22;2913;51.120;6.772;2024-03-08T07:35:40;5.00;99.90
5775;DHT22;2913;51.120;6.772;2024-03-08T07:38:09;5.10;99.90
5775;DHT22;2913;51.120;6.772;2024-03-08T07:40:40;5.20;99.90
5775;DHT22;2913;51.120;6.772;2024-03-08T07:43:10;5.30;99.90
5775;DHT22;2913;51.120;6.772;2024-03-08T07:45:39;5.40;99.90
5775;DHT22;2913;51.120;6.772;2024-03-08T07:48:07;5.30;99.90
5775;DHT22;2913;51.120;6.772;2024-03-08T07:50:37;5.60;99.90
5775;DHT22;2913;51.120;6.772;2024-03-08T07:53:05;5.70;99.90
5775;DHT22;2913;51.120;6.772;2024-03-08T07:55:37;5.80;99.90
5775;DHT22;2913;51.120;6.772;2024-03-08T07:58:07;5.90;99.90
5775;DHT22;2913;51.120;6.772;2024-03-08T08:00:36;5.80;99.90
5775;DHT22;2913;51.120;6.772;2024-03-08T08:03:04;5.90;99.90
5775;DHT22;2913;51.120;6.772;2024-03-08T08:05:30;5.90;99.90
5775;DHT22;2913;51.120;6.772;2024-03-08T08:08:03;5.90;99.90
5775;DHT22;2913;51.120;6.772;2024-03-08T08:10:32;6.00;99.90
5775;DHT22;2913;51.120;6.772;2024-03-08T08:13:00;6.00;99.90
5775;DHT22;2913;51.120;6.772;2024-03-08T08:15:26;6.00;99.90
5775;DHT22;2913;51.120;6.772;2024-03-08T08:17:53;6.10;99.90
5775;DHT22;2913;51.120;6.772;2024-03-08T08:20:21;6.10;99.90
5775;DHT22;2913;51.120;6.772;2024-03-08T08:22:48;6.20;99.90
5775;DHT22;2913;51.120;6.772;2024-03-08T08:25:15;6.20;99.90
5775;DHT22;2913;51.120;6.772;2024-03-08T08:27:46;6.40;99.90
5775;DHT22;2913;51.120;6.772;2024-03-08T08:30:12;6.30;99.90
5775;DHT22;2913;51.120;6.772;2024-03-08T08:32:39;6.40;99.90
5775;DHT22;2913;51.120;6.772;2024-03-08T08:35:08;6.40;99.90
5775;DHT22;2913;51.120;6.772;2024-03-08T08:37:41;6.40;99.90
5775;DHT22;2913;51.120;6.772;2024-03-08T08:40:07;6.50;99.90
5775;DHT22;2913;51.120;6.772;2024-03-08T08:42:39;6.50;99.90
5775;DHT22;2913;51.120;6.772;2024-03-08T08:45:06;6.60;99.90
5775;DHT22;2913;51.120;6.772;2024-03-08T08:47:38;6.70;99.90
5775;DHT22;2913;51.120;6.772;2024-03-08T08:50:04;6.80;99.90
5775;DHT22;2913;51.120;6.772;2024-03-08T08:52:32;6.90;99.90
5775;DHT22;2913;51.120;6.772;2024-03-08T08:55:00;6.90;99.90
5775;DHT22;2913;51.120;6.772;2024-03-08T08:57:26;7.00;99.90
5775;DHT22;2913;51.120;6.772;2024-03-08T08:59:52;7.10;99.90
5775;DHT22;2913;51.120;6.772;2024-03-08T09:02:20;6.90;99.90
5775;DHT22;2913;51.120;6.772;2024-03-08T09:04:46;7.00;99.90
5775;DHT22;2913;51.120;6.772;2024-03-08T09:07:13;7.90;99.90
5775;DHT22;2913;51.120;6.772;2024-03-08T09:09:44;7.10;99.90
5775;DHT22;2913;51.120;6.772;2024-03-08T09:12:10;7.10;99.90
5775;DHT22;2913;51.120;6.772;2024-03-08T09:14:42;7.20;99.90
5775;DHT22;2913;51.120;6.772;2024-03-08T09:17:08;7.30;99.90
5775;DHT22;2913;51.120;6.772;2024-03-08T09:19:34;7.30;99.90
5775;DHT22;2913;51.120;6.772;2024-03-08T09:22:00;7.50;99.90
5775;DHT22;2913;51.120;6.772;2024-03-08T09:24:25;7.50;99.90
5775;DHT22;2913;51.120;6.772;2024-03-08T09:26:51;7.50;99.90
5775;DHT22;2913;51.120;6.772;2024-03-08T09:29:20;7.40;99.90
5775;DHT22;2913;51.120;6.772;2024-03-08T09:31:45;7.50;99.90
5775;DHT22;2913;51.120;6.772;2024-03-08T09:34:11;7.60;99.90
5775;DHT22;2913;51.120;6.772;2024-03-08T09:36:37;7.80;99.90
5775;DHT22;2913;51.120;6.772;2024-03-08T09:39:07;7.90;99.90
5775;DHT22;2913;51.120;6.772;2024-03-08T09:41:35;7.80;99.90
5775;DHT22;2913;51.120;6.772;2024-03-08T09:44:03;7.80;99.90
5775;DHT22;2913;51.120;6.772;2024-03-08T09:46:29;8.00;99.90
5775;DHT22;2913;51.120;6.772;2024-03-08T09:48:55;7.90;99.90
5775;DHT22;2913;51.120;6.772;2024-03-08T09:51:27;8.00;99.90
5775;DHT22;2913;51.120;6.772;2024-03-08T09:53:56;8.10;99.90
5775;DHT22;2913;51.120;6.772;2024-03-08T09:56:23;8.10;99.90
5775;DHT22;2913;51.120;6.772;2024-03-08T09:58:53;8.10;99.90
5775;DHT22;2913;51.120;6.772;2024-03-08T10:01:37;8.30;99.90
5775;DHT22;2913;51.120;6.772;2024-03-08T10:04:04;8.40;99.60
5775;DHT22;2913;51.120;6.772;2024-03-08T10:06:32;8.50;99.90
5775;DHT22;2913;51.120;6.772;2024-03-08T10:08:58;8.50;98.30
5775;DHT22;2913;51.120;6.772;2024-03-08T10:11:27;8.50;98.80
5775;DHT22;2913;51.120;6.772;2024-03-08T10:13:52;8.70;99.40
5775;DHT22;2913;51.120;6.772;2024-03-08T10:16:18;8.80;98.80
5775;DHT22;2913;51.120;6.772;2024-03-08T10:18:45;8.80;97.20
5775;DHT22;2913;51.120;6.772;2024-03-08T10:21:11;8.70;95.90
5775;DHT22;2913;51.120;6.772;2024-03-08T10:23:37;8.70;95.40
5775;DHT22;2913;51.120;6.772;2024-03-08T10:26:13;8.60;95.20
5775;DHT22;2913;51.120;6.772;2024-03-08T10:28:54;8.80;95.80
5775;DHT22;2913;51.120;6.772;2024-03-08T10:31:20;8.90;96.10
5775;DHT22;2913;51.120;6.772;2024-03-08T10:33:46;8.80;94.70
5775;DHT22;2913;51.120;6.772;2024-03-08T10:36:14;9.00;96.20
5775;DHT22;2913;51.120;6.772;2024-03-08T10:38:44;9.20;97.30
5775;DHT22;2913;51.120;6.772;2024-03-08T10:41:14;9.00;94.50
5775;DHT22;2913;51.120;6.772;2024-03-08T10:43:52;9.20;95.20
5775;DHT22;2913;51.120;6.772;2024-03-08T10:46:33;9.30;94.30
5775;DHT22;2913;51.120;6.772;2024-03-08T10:49:09;9.30;95.20
5775;DHT22;2913;51.120;6.772;2024-03-08T10:51:38;9.30;93.90
5775;DHT22;2913;51.120;6.772;2024-03-08T10:54:10;9.30;93.30
5775;DHT22;2913;51.120;6.772;2024-03-08T10:56:37;9.30;93.30
5775;DHT22;2913;51.120;6.772;2024-03-08T10:59:07;9.50;93.90
5775;DHT22;2913;51.120;6.772;2024-03-08T11:01:34;9.50;93.00
5775;DHT22;2913;51.120;6.772;2024-03-08T11:03:59;9.60;93.20
5775;DHT22;2913;51.120;6.772;2024-03-08T11:09:48;9.70;92.50
5775;DHT22;2913;51.120;6.772;2024-03-08T11:11:52;9.70;92.00
5775;DHT22;2913;51.120;6.772;2024-03-08T11:14:46;9.70;92.10
5775;DHT22;2913;51.120;6.772;2024-03-08T11:17:15;9.90;92.50
5775;DHT22;2913;51.120;6.772;2024-03-08T11:19:46;9.70;90.70
5775;DHT22;2913;51.120;6.772;2024-03-08T11:22:21;9.80;91.00
5775;DHT22;2913;51.120;6.772;2024-03-08T11:24:51;10.00;91.50
5775;DHT22;2913;51.120;6.772;2024-03-08T11:27:17;10.10;91.00
5775;DHT22;2913;51.120;6.772;2024-03-08T11:29:42;10.20;89.90
5775;DHT22;2913;51.120;6.772;2024-03-08T11:32:17;10.30;90.30
5775;DHT22;2913;51.120;6.772;2024-03-08T11:34:48;10.40;90.00
5775;DHT22;2913;51.120;6.772;2024-03-08T11:37:18;10.40;89.30
5775;DHT22;2913;51.120;6.772;2024-03-08T11:39:50;10.20;87.20
5775;DHT22;2913;51.120;6.772;2024-03-08T11:42:17;10.20;87.70
5775;DHT22;2913;51.120;6.772;2024-03-08T11:44:43;10.20;86.00
5775;DHT22;2913;51.120;6.772;2024-03-08T11:47:12;10.30;86.00
5775;DHT22;2913;51.120;6.772;2024-03-08T11:49:40;10.30;85.90
5775;DHT22;2913;51.120;6.772;2024-03-08T11:52:15;10.40;86.10
5775;DHT22;2913;51.120;6.772;2024-03-08T11:54:54;10.40;84.40
5775;DHT22;2913;51.120;6.772;2024-03-08T11:57:23;10.70;86.80
5775;DHT22;2913;51.120;6.772;2024-03-08T11:59:55;10.60;85.20
5775;DHT22;2913;51.120;6.772;2024-03-08T12:02:30;10.70;84.00
5775;DHT22;2913;51.120;6.772;2024-03-08T12:05:00;10.70;83.00
5775;DHT22;2913;51.120;6.772;2024-03-08T12:07:31;10.90;83.80
5775;DHT22;2913;51.120;6.772;2024-03-08T12:10:18;10.70;82.50
5775;DHT22;2913;51.120;6.772;2024-03-08T12:12:52;10.80;83.60
5775;DHT22;2913;51.120;6.772;2024-03-08T12:15:22;11.00;84.20
5775;DHT22;2913;51.120;6.772;2024-03-08T12:17:54;11.00;83.40
5775;DHT22;2913;51.120;6.772;2024-03-08T12:20:25;11.00;82.30
5775;DHT22;2913;51.120;6.772;2024-03-08T12:22:52;10.90;80.50
5775;DHT22;2913;51.120;6.772;2024-03-08T12:25:23;11.00;81.30
5775;DHT22;2913;51.120;6.772;2024-03-08T12:27:54;11.00;80.70
5775;DHT22;2913;51.120;6.772;2024-03-08T12:30:22;11.00;80.10
5775;DHT22;2913;51.120;6.772;2024-03-08T12:35:25;11.20;81.00
5775;DHT22;2913;51.120;6.772;2024-03-08T12:37:59;11.30;80.50
5775;DHT22;2913;51.120;6.772;2024-03-08T12:40:32;11.30;79.60
5775;DHT22;2913;51.120;6.772;2024-03-08T12:43:02;11.30;79.20
5775;DHT22;2913;51.120;6.772;2024-03-08T12:45:28;11.50;79.70
5775;DHT22;2913;51.120;6.772;2024-03-08T12:47:58;11.40;78.00
5775;DHT22;2913;51.120;6.772;2024-03-08T12:50:25;11.50;78.70
5775;DHT22;2913;51.120;6.772;2024-03-08T12:52:50;11.70;78.60
5775;DHT22;2913;51.120;6.772;2024-03-08T12:55:18;11.60;77.50
5775;DHT22;2913;51.120;6.772;2024-03-08T12:57:44;11.70;77.70
5775;DHT22;2913;51.120;6.772;2024-03-08T13:00:14;11.60;76.70
5775;DHT22;2913;51.120;6.772;2024-03-08T13:02:47;11.60;76.40
5775;DHT22;2913;51.120;6.772;2024-03-08T13:05:13;11.70;75.70
5775;DHT22;2913;51.120;6.772;2024-03-08T13:07:40;11.80;75.10
5775;DHT22;2913;51.120;6.772;2024-03-08T13:10:10;11.80;75.50
5775;DHT22;2913;51.120;6.772;2024-03-08T13:12:40;11.80;74.00
5775;DHT22;2913;51.120;6.772;2024-03-08T13:15:09;11.90;74.40
5775;DHT22;2913;51.120;6.772;2024-03-08T13:17:48;11.80;74.50
5775;DHT22;2913;51.120;6.772;2024-03-08T13:20:14;11.90;74.90
5775;DHT22;2913;51.120;6.772;2024-03-08T13:22:43;11.90;75.20
5775;DHT22;2913;51.120;6.772;2024-03-08T13:25:08;12.00;74.90
5775;DHT22;2913;51.120;6.772;2024-03-08T13:27:42;12.00;74.00
5775;DHT22;2913;51.120;6.772;2024-03-08T13:30:09;12.10;74.30
5775;DHT22;2913;51.120;6.772;2024-03-08T13:32:42;12.00;75.00
5775;DHT22;2913;51.120;6.772;2024-03-08T13:35:11;11.90;75.70
5775;DHT22;2913;51.120;6.772;2024-03-08T13:37:41;12.00;74.00
5775;DHT22;2913;51.120;6.772;2024-03-08T13:40:08;12.00;73.50
5775;DHT22;2913;51.120;6.772;2024-03-08T13:42:40;11.90;73.50
5775;DHT22;2913;51.120;6.772;2024-03-08T13:45:08;12.00;72.80
5775;DHT22;2913;51.120;6.772;2024-03-08T13:47:40;12.10;73.90
5775;DHT22;2913;51.120;6.772;2024-03-08T13:50:12;12.00;73.80
5775;DHT22;2913;51.120;6.772;2024-03-08T13:52:50;12.00;72.40
5775;DHT22;2913;51.120;6.772;2024-03-08T13:55:20;12.00;72.80
5775;DHT22;2913;51.120;6.772;2024-03-08T13:57:47;11.90;72.30
5775;DHT22;2913;51.120;6.772;2024-03-08T14:00:13;12.10;73.20
5775;DHT22;2913;51.120;6.772;2024-03-08T14:02:40;12.10;72.90
5775;DHT22;2913;51.120;6.772;2024-03-08T14:05:07;12.20;71.90
5775;DHT22;2913;51.120;6.772;2024-03-08T14:07:35;12.20;71.30
5775;DHT22;2913;51.120;6.772;2024-03-08T14:10:00;12.00;71.20
5775;DHT22;2913;51.120;6.772;2024-03-08T14:12:26;12.30;73.60
5775;DHT22;2913;51.120;6.772;2024-03-08T14:14:55;12.40;74.10
5775;DHT22;2913;51.120;6.772;2024-03-08T14:17:25;12.30;72.80
5775;DHT22;2913;51.120;6.772;2024-03-08T14:19:52;12.40;73.10
5775;DHT22;2913;51.120;6.772;2024-03-08T14:22:18;12.30;73.10
5775;DHT22;2913;51.120;6.772;2024-03-08T14:24:44;12.30;73.30
5775;DHT22;2913;51.120;6.772;2024-03-08T14:27:10;12.10;72.60
5775;DHT22;2913;51.120;6.772;2024-03-08T14:29:37;12.20;74.00
5775;DHT22;2913;51.120;6.772;2024-03-08T14:32:05;12.30;74.40
5775;DHT22;2913;51.120;6.772;2024-03-08T14:34:33;12.20;73.50
5775;DHT22;2913;51.120;6.772;2024-03-08T14:37:02;12.20;73.70
5775;DHT22;2913;51.120;6.772;2024-03-08T14:39:39;12.20;74.10
5775;DHT22;2913;51.120;6.772;2024-03-08T14:42:06;12.00;72.80
5775;DHT22;2913;51.120;6.772;2024-03-08T14:44:38;12.10;73.20
5775;DHT22;2913;51.120;6.772;2024-03-08T14:47:04;12.20;74.20
5775;DHT22;2913;51.120;6.772;2024-03-08T14:49:32;12.10;73.30
5775;DHT22;2913;51.120;6.772;2024-03-08T14:52:01;12.10;73.90
5775;DHT22;2913;51.120;6.772;2024-03-08T14:54:27;12.00;73.40
5775;DHT22;2913;51.120;6.772;2024-03-08T14:56:53;12.00;74.50
5775;DHT22;2913;51.120;6.772;2024-03-08T14:59:20;12.10;74.70
5775;DHT22;2913;51.120;6.772;2024-03-08T15:01:46;12.10;74.10
5775;DHT22;2913;51.120;6.772;2024-03-08T15:04:12;12.00;73.60
5775;DHT22;2913;51.120;6.772;2024-03-08T15:06:38;11.90;73.80
5775;DHT22;2913;51.120;6.772;2024-03-08T15:09:04;12.00;75.40
5775;DHT22;2913;51.120;6.772;2024-03-08T15:11:44;11.90;74.60
5775;DHT22;2913;51.120;6.772;2024-03-08T15:14:12;11.90;74.80
5775;DHT22;2913;51.120;6.772;2024-03-08T15:16:41;11.80;74.10
5775;DHT22;2913;51.120;6.772;2024-03-08T15:19:08;11.80;74.60
5775;DHT22;2913;51.120;6.772;2024-03-08T15:21:33;11.80;74.70
5775;DHT22;2913;51.120;6.772;2024-03-08T15:24:02;11.80;75.00
5775;DHT22;2913;51.120;6.772;2024-03-08T15:26:35;11.80;75.10
5775;DHT22;2913;51.120;6.772;2024-03-08T15:29:01;11.80;75.50
5775;DHT22;2913;51.120;6.772;2024-03-08T15:31:31;11.70;74.40
5775;DHT22;2913;51.120;6.772;2024-03-08T15:33:57;11.70;74.90
5775;DHT22;2913;51.120;6.772;2024-03-08T15:36:31;11.60;75.20
5775;DHT22;2913;51.120;6.772;2024-03-08T15:39:01;11.70;76.00
5775;DHT22;2913;51.120;6.772;2024-03-08T15:41:27;11.50;74.00
5775;DHT22;2913;51.120;6.772;2024-03-08T15:43:55;11.60;74.60
5775;DHT22;2913;51.120;6.772;2024-03-08T15:46:21;11.60;76.00
5775;DHT22;2913;51.120;6.772;2024-03-08T15:48:48;11.60;75.10
5775;DHT22;2913;51.120;6.772;2024-03-08T15:51:14;11.60;75.10
5775;DHT22;2913;51.120;6.772;2024-03-08T15:53:43;11.60;75.30
5775;DHT22;2913;51.120;6.772;2024-03-08T15:56:18;11.50;74.80
5775;DHT22;2913;51.120;6.772;2024-03-08T15:58:46;11.50;75.20
5775;DHT22;2913;51.120;6.772;2024-03-08T16:01:11;11.50;75.20
5775;DHT22;2913;51.120;6.772;2024-03-08T16:03:41;11.50;75.80
5775;DHT22;2913;51.120;6.772;2024-03-08T16:06:09;11.50;75.60
5775;DHT22;2913;51.120;6.772;2024-03-08T16:08:35;11.50;75.90
5775;DHT22;2913;51.120;6.772;2024-03-08T16:11:05;11.50;76.40
5775;DHT22;2913;51.120;6.772;2024-03-08T16:13:35;11.50;76.30
5775;DHT22;2913;51.120;6.772;2024-03-08T16:16:06;11.50;76.10
5775;DHT22;2913;51.120;6.772;2024-03-08T16:18:32;11.50;77.70
5775;DHT22;2913;51.120;6.772;2024-03-08T16:21:00;11.50;76.40
5775;DHT22;2913;51.120;6.772;2024-03-08T16:23:31;11.40;76.40
5775;DHT22;2913;51.120;6.772;2024-03-08T16:25:59;11.40;76.50
5775;DHT22;2913;51.120;6.772;2024-03-08T16:28:27;11.30;76.00
5775;DHT22;2913;51.120;6.772;2024-03-08T16:31:04;11.40;76.60
5775;DHT22;2913;51.120;6.772;2024-03-08T16:33:30;11.20;77.00
5775;DHT22;2913;51.120;6.772;2024-03-08T16:35:55;11.30;77.70
5775;DHT22;2913;51.120;6.772;2024-03-08T16:38:22;11.30;77.80
5775;DHT22;2913;51.120;6.772;2024-03-08T16:40:49;11.20;77.80
5775;DHT22;2913;51.120;6.772;2024-03-08T16:43:18;11.10;77.60
5775;DHT22;2913;51.120;6.772;2024-03-08T16:45:47;11.20;77.30